sensor_id;sensor_type;location;lat;lon;timestamp;pressure;altitude;pressure_sealevel;temperature;humidity
45345;BME280;31078;48.304;11.896;2023-02-19T00:00:06;96693.41;;;9.93;69.71
45345;BME280;31078;48.304;11.896;2023-02-19T00:02:33;96692.31;;;9.94;69.64
45345;BME280;31078;48.304;11.896;2023-02-19T00:05:01;96688.38;;;9.86;69.71
45345;BME280;31078;48.304;11.896;2023-02-19T00:07:27;96681.97;;;9.82;70.08
45345;BME280;31078;48.304;11.896;2023-02-19T00:09:54;96687.09;;;9.84;70.25
45345;BME280;31078;48.304;11.896;2023-02-19T00:12:20;96678.72;;;9.80;70.57
45345;BME280;31078;48.304;11.896;2023-02-19T00:14:47;96678.72;;;9.80;70.30
45345;BME280;31078;48.304;11.896;2023-02-19T00:17:13;96676.00;;;9.80;70.26
45345;BME280;31078;48.304;11.896;2023-02-19T00:19:40;96686.38;;;9.78;70.70
45345;BME280;31078;48.304;11.896;2023-02-19T00:22:07;96684.56;;;9.74;71.17
45345;BME280;31078;48.304;11.896;2023-02-19T00:24:34;96685.69;;;9.73;71.31
45345;BME280;31078;48.304;11.896;2023-02-19T00:27:00;96684.38;;;9.70;71.21
45345;BME280;31078;48.304;11.896;2023-02-19T00:29:27;96668.06;;;9.70;71.29
45345;BME280;31078;48.304;11.896;2023-02-19T00:31:53;96670.59;;;9.66;71.54
45345;BME280;31078;48.304;11.896;2023-02-19T00:34:20;96666.25;;;9.65;72.00
45345;BME280;31078;48.304;11.896;2023-02-19T00:36:46;96664.63;;;9.64;72.29
45345;BME280;31078;48.304;11.896;2023-02-19T00:39:15;96660.31;;;9.63;71.87
45345;BME280;31078;48.304;11.896;2023-02-19T00:41:42;96657.00;;;9.66;72.16
45345;BME280;31078;48.304;11.896;2023-02-19T00:44:10;96652.66;;;9.65;72.31
45345;BME280;31078;48.304;11.896;2023-02-19T00:46:39;96660.63;;;9.62;72.49
45345;BME280;31078;48.304;11.896;2023-02-19T00:49:06;96659.31;;;9.59;72.55
45345;BME280;31078;48.304;11.896;2023-02-19T00:51:35;96651.47;;;9.58;72.91
45345;BME280;31078;48.304;11.896;2023-02-19T00:54:03;96657.69;;;9.58;72.91
45345;BME280;31078;48.304;11.896;2023-02-19T00:56:32;96650.47;;;9.54;73.31
45345;BME280;31078;48.304;11.896;2023-02-19T00:58:58;96659.41;;;9.54;73.34
45345;BME280;31078;48.304;11.896;2023-02-19T01:01:25;96639.47;;;9.59;73.22
45345;BME280;31078;48.304;11.896;2023-02-19T01:03:51;96638.47;;;9.55;73.30
45345;BME280;31078;48.304;11.896;2023-02-19T01:06:18;96637.88;;;9.58;73.35
45345;BME280;31078;48.304;11.896;2023-02-19T01:08:45;96639.31;;;9.55;73.56
45345;BME280;31078;48.304;11.896;2023-02-19T01:11:12;96641.69;;;9.57;73.38
45345;BME280;31078;48.304;11.896;2023-02-19T01:13:41;96644.44;;;9.57;73.17
45345;BME280;31078;48.304;11.896;2023-02-19T01:16:10;96635.47;;;9.56;73.32
45345;BME280;31078;48.304;11.896;2023-02-19T01:18:38;96633.88;;;9.55;73.19
45345;BME280;31078;48.304;11.896;2023-02-19T01:21:05;96627.41;;;9.51;73.76
45345;BME280;31078;48.304;11.896;2023-02-19T01:23:32;96630.13;;;9.51;73.82
45345;BME280;31078;48.304;11.896;2023-02-19T01:25:59;96627.59;;;9.55;73.67
45345;BME280;31078;48.304;11.896;2023-02-19T01:28:25;96635.47;;;9.56;73.28
45345;BME280;31078;48.304;11.896;2023-02-19T01:30:53;96615.31;;;9.57;73.24
45345;BME280;31078;48.304;11.896;2023-02-19T01:33:20;96619.31;;;9.60;73.47
45345;BME280;31078;48.304;11.896;2023-02-19T01:35:46;96614.19;;;9.58;73.45
45345;BME280;31078;48.304;11.896;2023-02-19T01:38:12;96612.59;;;9.57;73.15
45345;BME280;31078;48.304;11.896;2023-02-19T01:40:39;96611.81;;;9.57;73.24
45345;BME280;31078;48.304;11.896;2023-02-19T01:43:11;96608.28;;;9.56;73.20
45345;BME280;31078;48.304;11.896;2023-02-19T01:45:42;96595.81;;;9.55;73.56
45345;BME280;31078;48.304;11.896;2023-02-19T01:48:12;96596.28;;;9.57;73.62
45345;BME280;31078;48.304;11.896;2023-02-19T01:50:42;96592.56;;;9.53;73.54
45345;BME280;31078;48.304;11.896;2023-02-19T01:53:12;96590.38;;;9.55;73.55
45345;BME280;31078;48.304;11.896;2023-02-19T01:55:41;96587.75;;;9.50;74.25
45345;BME280;31078;48.304;11.896;2023-02-19T01:58:08;96591.06;;;9.47;74.44
45345;BME280;31078;48.304;11.896;2023-02-19T02:00:35;96588.06;;;9.35;75.71
45345;BME280;31078;48.304;11.896;2023-02-19T02:03:03;96578.13;;;9.17;77.55
45345;BME280;31078;48.304;11.896;2023-02-19T02:05:53;96586.56;;;9.01;79.00
45345;BME280;31078;48.304;11.896;2023-02-19T02:08:22;96571.28;;;9.05;78.35
45345;BME280;31078;48.304;11.896;2023-02-19T02:11:09;96568.09;;;9.03;78.56
45345;BME280;31078;48.304;11.896;2023-02-19T02:13:37;96564.63;;;9.11;77.61
45345;BME280;31078;48.304;11.896;2023-02-19T02:16:16;96567.03;;;9.13;77.52
45345;BME280;31078;48.304;11.896;2023-02-19T02:18:55;96563.84;;;9.11;77.46
45345;BME280;31078;48.304;11.896;2023-02-19T02:24:42;96563.84;;;8.97;79.71
45345;BME280;31078;48.304;11.896;2023-02-19T02:27:38;96570.47;;;8.91;80.06
45345;BME280;31078;48.304;11.896;2023-02-19T02:30:38;96553.97;;;9.01;78.74
45345;BME280;31078;48.304;11.896;2023-02-19T02:33:16;96547.97;;;9.04;78.33
45345;BME280;31078;48.304;11.896;2023-02-19T02:35:47;96550.84;;;9.08;78.36
45345;BME280;31078;48.304;11.896;2023-02-19T02:38:17;96557.41;;;9.07;78.27
45345;BME280;31078;48.304;11.896;2023-02-19T02:40:46;96550.94;;;9.03;78.32
45345;BME280;31078;48.304;11.896;2023-02-19T02:43:13;96549.44;;;8.97;79.35
45345;BME280;31078;48.304;11.896;2023-02-19T02:45:41;96546.94;;;9.00;78.13
45345;BME280;31078;48.304;11.896;2023-02-19T02:48:13;96537.09;;;9.04;78.25
45345;BME280;31078;48.304;11.896;2023-02-19T02:50:45;96537.09;;;9.04;78.48
45345;BME280;31078;48.304;11.896;2023-02-19T02:53:17;96533.78;;;8.80;81.38
45345;BME280;31078;48.304;11.896;2023-02-19T02:56:03;96528.25;;;8.85;80.05
45345;BME280;31078;48.304;11.896;2023-02-19T02:58:31;96517.97;;;8.82;79.99
45345;BME280;31078;48.304;11.896;2023-02-19T03:01:04;96519.09;;;8.81;80.71
45345;BME280;31078;48.304;11.896;2023-02-19T03:03:53;96515.34;;;8.77;80.95
45345;BME280;31078;48.304;11.896;2023-02-19T03:06:24;96503.91;;;8.80;80.43
45345;BME280;31078;48.304;11.896;2023-02-19T03:08:55;96517.97;;;8.96;79.89
45345;BME280;31078;48.304;11.896;2023-02-19T03:11:24;96511.75;;;8.81;81.25
45345;BME280;31078;48.304;11.896;2023-02-19T03:14:11;96494.38;;;8.69;82.51
45345;BME280;31078;48.304;11.896;2023-02-19T03:17:02;96497.28;;;8.58;82.57
45345;BME280;31078;48.304;11.896;2023-02-19T03:19:49;96501.09;;;8.57;82.82
45345;BME280;31078;48.304;11.896;2023-02-19T03:22:22;96510.34;;;8.56;83.37
45345;BME280;31078;48.304;11.896;2023-02-19T03:24:53;96506.81;;;8.42;84.70
45345;BME280;31078;48.304;11.896;2023-02-19T03:27:41;96507.13;;;8.54;83.98
45345;BME280;31078;48.304;11.896;2023-02-19T03:30:10;96497.97;;;8.50;83.74
45345;BME280;31078;48.304;11.896;2023-02-19T03:32:43;96506.00;;;8.55;83.39
45345;BME280;31078;48.304;11.896;2023-02-19T03:35:12;96493.66;;;8.63;83.15
45345;BME280;31078;48.304;11.896;2023-02-19T03:37:42;96489.63;;;8.60;83.38
45345;BME280;31078;48.304;11.896;2023-02-19T03:40:09;96502.69;;;8.58;84.33
45345;BME280;31078;48.304;11.896;2023-02-19T03:42:41;96499.69;;;8.60;84.63
45345;BME280;31078;48.304;11.896;2023-02-19T03:45:24;96490.94;;;8.63;84.01
45345;BME280;31078;48.304;11.896;2023-02-19T03:48:02;96495.66;;;8.57;85.42
45345;BME280;31078;48.304;11.896;2023-02-19T03:50:36;96498.50;;;8.52;85.87
45345;BME280;31078;48.304;11.896;2023-02-19T03:53:11;96502.31;;;8.51;86.44
45345;BME280;31078;48.304;11.896;2023-02-19T03:55:45;96495.66;;;8.44;87.49
45345;BME280;31078;48.304;11.896;2023-02-19T03:58:22;96497.81;;;8.28;89.81
45345;BME280;31078;48.304;11.896;2023-02-19T04:00:52;96495.69;;;8.11;91.61
45345;BME280;31078;48.304;11.896;2023-02-19T04:03:27;96498.56;;;8.01;93.23
45345;BME280;31078;48.304;11.896;2023-02-19T04:05:57;96515.25;;;7.94;93.99
45345;BME280;31078;48.304;11.896;2023-02-19T04:08:27;96501.97;;;7.93;93.90
45345;BME280;31078;48.304;11.896;2023-02-19T04:10:54;96504.56;;;7.84;94.95
45345;BME280;31078;48.304;11.896;2023-02-19T04:13:24;96503.94;;;7.87;94.47
45345;BME280;31078;48.304;11.896;2023-02-19T04:15:54;96493.53;;;7.94;93.50
45345;BME280;31078;48.304;11.896;2023-02-19T04:18:26;96496.03;;;7.91;93.58
45345;BME280;31078;48.304;11.896;2023-02-19T04:20:55;96503.19;;;8.00;92.37
45345;BME280;31078;48.304;11.896;2023-02-19T04:23:26;96504.00;;;8.01;92.29
45345;BME280;31078;48.304;11.896;2023-02-19T04:25:57;96495.56;;;8.02;91.97
45345;BME280;31078;48.304;11.896;2023-02-19T04:28:25;96496.56;;;8.06;91.18
45345;BME280;31078;48.304;11.896;2023-02-19T04:30:51;96500.97;;;8.02;91.45
45345;BME280;31078;48.304;11.896;2023-02-19T04:33:18;96498.78;;;8.04;90.95
45345;BME280;31078;48.304;11.896;2023-02-19T04:35:45;96492.03;;;8.02;91.00
45345;BME280;31078;48.304;11.896;2023-02-19T04:38:12;96499.78;;;8.08;90.40
45345;BME280;31078;48.304;11.896;2023-02-19T04:40:39;96492.75;;;8.07;90.09
45345;BME280;31078;48.304;11.896;2023-02-19T04:43:05;96498.19;;;8.07;90.35
45345;BME280;31078;48.304;11.896;2023-02-19T04:45:31;96514.47;;;8.07;90.43
45345;BME280;31078;48.304;11.896;2023-02-19T04:47:58;96514.47;;;8.07;89.91
45345;BME280;31078;48.304;11.896;2023-02-19T04:50:24;96502.50;;;8.08;89.92
45345;BME280;31078;48.304;11.896;2023-02-19T04:52:52;96496.28;;;8.08;89.84
45345;BME280;31078;48.304;11.896;2023-02-19T04:55:19;96506.41;;;8.02;90.83
45345;BME280;31078;48.304;11.896;2023-02-19T04:57:45;96512.00;;;7.92;91.70
45345;BME280;31078;48.304;11.896;2023-02-19T05:00:12;96513.28;;;7.81;92.85
45345;BME280;31078;48.304;11.896;2023-02-19T05:02:39;96528.44;;;7.82;92.59
45345;BME280;31078;48.304;11.896;2023-02-19T05:05:05;96518.69;;;7.81;92.42
45345;BME280;31078;48.304;11.896;2023-02-19T05:07:32;96517.59;;;7.82;92.31
45345;BME280;31078;48.304;11.896;2023-02-19T05:10:00;96513.59;;;7.93;90.66
45345;BME280;31078;48.304;11.896;2023-02-19T05:12:28;96514.72;;;7.92;91.08
45345;BME280;31078;48.304;11.896;2023-02-19T05:14:54;96513.41;;;7.90;91.51
45345;BME280;31078;48.304;11.896;2023-02-19T05:17:21;96507.59;;;7.96;89.85
45345;BME280;31078;48.304;11.896;2023-02-19T05:19:47;96520.06;;;7.97;90.36
45345;BME280;31078;48.304;11.896;2023-02-19T05:22:14;96519.84;;;7.94;90.70
45345;BME280;31078;48.304;11.896;2023-02-19T05:24:40;96521.66;;;7.98;89.73
45345;BME280;31078;48.304;11.896;2023-02-19T05:27:08;96522.75;;;7.97;90.36
45345;BME280;31078;48.304;11.896;2023-02-19T05:29:34;96524.66;;;7.97;90.12
45345;BME280;31078;48.304;11.896;2023-02-19T05:32:01;96537.13;;;7.98;90.58
45345;BME280;31078;48.304;11.896;2023-02-19T05:34:27;96532.22;;;8.00;89.25
45345;BME280;31078;48.304;11.896;2023-02-19T05:36:54;96540.56;;;8.03;89.19
45345;BME280;31078;48.304;11.896;2023-02-19T05:39:20;96537.34;;;8.01;89.55
45345;BME280;31078;48.304;11.896;2023-02-19T05:41:47;96537.94;;;7.98;89.97
45345;BME280;31078;48.304;11.896;2023-02-19T05:44:14;96537.13;;;7.98;89.52
45345;BME280;31078;48.304;11.896;2023-02-19T05:46:41;96538.53;;;7.95;90.13
45345;BME280;31078;48.304;11.896;2023-02-19T05:49:07;96538.84;;;7.94;90.25
45345;BME280;31078;48.304;11.896;2023-02-19T05:51:34;96544.47;;;7.97;89.87
45345;BME280;31078;48.304;11.896;2023-02-19T05:54:00;96548.78;;;7.98;89.87
45345;BME280;31078;48.304;11.896;2023-02-19T05:56:30;96551.47;;;7.98;89.69
45345;BME280;31078;48.304;11.896;2023-02-19T05:58:58;96553.31;;;8.03;88.99
45345;BME280;31078;48.304;11.896;2023-02-19T06:01:27;96550.59;;;8.03;88.90
45345;BME280;31078;48.304;11.896;2023-02-19T06:03:54;96562.78;;;8.05;88.67
45345;BME280;31078;48.304;11.896;2023-02-19T06:06:21;96551.41;;;8.03;89.16
45345;BME280;31078;48.304;11.896;2023-02-19T06:08:48;96556.81;;;8.03;89.09
45345;BME280;31078;48.304;11.896;2023-02-19T06:11:15;96555.53;;;8.01;89.23
45345;BME280;31078;48.304;11.896;2023-02-19T06:13:42;96561.25;;;7.99;89.46
45345;BME280;31078;48.304;11.896;2023-02-19T06:16:09;96554.19;;;7.98;89.55
45345;BME280;31078;48.304;11.896;2023-02-19T06:18:37;96555.81;;;7.99;89.46
45345;BME280;31078;48.304;11.896;2023-02-19T06:21:07;96550.41;;;7.99;89.29
45345;BME280;31078;48.304;11.896;2023-02-19T06:23:34;96556.03;;;8.03;89.45
45345;BME280;31078;48.304;11.896;2023-02-19T06:26:08;96567.19;;;8.01;89.21
45345;BME280;31078;48.304;11.896;2023-02-19T06:28:35;96563.34;;;8.02;89.16
45345;BME280;31078;48.304;11.896;2023-02-19T06:31:02;96568.69;;;8.07;88.21
45345;BME280;31078;48.304;11.896;2023-02-19T06:33:28;96572.50;;;8.06;88.54
45345;BME280;31078;48.304;11.896;2023-02-19T06:35:58;96574.13;;;8.07;88.04
45345;BME280;31078;48.304;11.896;2023-02-19T06:38:26;96577.84;;;8.11;88.31
45345;BME280;31078;48.304;11.896;2023-02-19T06:40:52;96576.75;;;8.13;87.37
45345;BME280;31078;48.304;11.896;2023-02-19T06:43:19;96573.72;;;8.14;86.74
45345;BME280;31078;48.304;11.896;2023-02-19T06:45:45;96592.44;;;8.16;87.53
45345;BME280;31078;48.304;11.896;2023-02-19T06:48:12;96592.44;;;8.16;86.90
45345;BME280;31078;48.304;11.896;2023-02-19T06:50:38;96604.31;;;8.20;87.10
45345;BME280;31078;48.304;11.896;2023-02-19T06:53:06;96606.94;;;8.25;86.95
45345;BME280;31078;48.304;11.896;2023-02-19T06:55:35;96615.09;;;8.25;87.02
45345;BME280;31078;48.304;11.896;2023-02-19T06:58:02;96607.84;;;8.20;87.00
45345;BME280;31078;48.304;11.896;2023-02-19T07:00:28;96615.44;;;8.18;87.40
45345;BME280;31078;48.304;11.896;2023-02-19T07:02:55;96620.59;;;8.20;87.33
45345;BME280;31078;48.304;11.896;2023-02-19T07:05:22;96624.31;;;8.24;87.21
45345;BME280;31078;48.304;11.896;2023-02-19T07:07:48;96627.63;;;8.21;87.55
45345;BME280;31078;48.304;11.896;2023-02-19T07:10:16;96617.88;;;8.20;87.47
45345;BME280;31078;48.304;11.896;2023-02-19T07:12:43;96631.81;;;8.13;88.84
45345;BME280;31078;48.304;11.896;2023-02-19T07:15:10;96641.94;;;8.07;89.18
45345;BME280;31078;48.304;11.896;2023-02-19T07:17:36;96648.47;;;8.06;89.40
45345;BME280;31078;48.304;11.896;2023-02-19T07:20:03;96649.78;;;7.90;92.16
45345;BME280;31078;48.304;11.896;2023-02-19T07:22:29;96648.22;;;7.65;96.16
45345;BME280;31078;48.304;11.896;2023-02-19T07:24:56;96651.38;;;7.53;97.25
45345;BME280;31078;48.304;11.896;2023-02-19T07:27:24;96667.03;;;7.56;95.38
45345;BME280;31078;48.304;11.896;2023-02-19T07:29:50;96662.78;;;7.50;95.88
45345;BME280;31078;48.304;11.896;2023-02-19T07:32:17;96674.09;;;7.57;95.36
45345;BME280;31078;48.304;11.896;2023-02-19T07:34:43;96679.22;;;7.59;96.14
45345;BME280;31078;48.304;11.896;2023-02-19T07:37:09;96690.91;;;7.54;97.06
45345;BME280;31078;48.304;11.896;2023-02-19T07:39:36;96688.22;;;7.54;97.67
45345;BME280;31078;48.304;11.896;2023-02-19T07:42:02;96689.88;;;7.50;98.92
45345;BME280;31078;48.304;11.896;2023-02-19T07:44:30;96712.97;;;7.48;99.77
45345;BME280;31078;48.304;11.896;2023-02-19T07:46:57;96700.50;;;7.47;99.38
45345;BME280;31078;48.304;11.896;2023-02-19T07:49:23;96705.94;;;7.47;99.59
45345;BME280;31078;48.304;11.896;2023-02-19T07:51:50;96707.75;;;7.51;99.61
45345;BME280;31078;48.304;11.896;2023-02-19T07:54:16;96710.41;;;7.56;99.87
45345;BME280;31078;48.304;11.896;2023-02-19T07:56:43;96721.19;;;7.62;98.46
45345;BME280;31078;48.304;11.896;2023-02-19T07:59:09;96727.69;;;7.61;98.69
45345;BME280;31078;48.304;11.896;2023-02-19T08:01:37;96722.28;;;7.61;97.75
45345;BME280;31078;48.304;11.896;2023-02-19T08:04:21;96727.50;;;7.57;97.12
45345;BME280;31078;48.304;11.896;2023-02-19T08:06:48;96739.69;;;7.54;98.21
45345;BME280;31078;48.304;11.896;2023-02-19T08:09:14;96727.25;;;7.53;99.90
45345;BME280;31078;48.304;11.896;2023-02-19T08:11:41;96739.81;;;7.44;100.00
45345;BME280;31078;48.304;11.896;2023-02-19T08:14:26;96730.34;;;7.18;100.00
45345;BME280;31078;48.304;11.896;2023-02-19T08:16:54;96732.66;;;7.05;100.00
45345;BME280;31078;48.304;11.896;2023-02-19T08:19:21;96741.84;;;7.04;100.00
45345;BME280;31078;48.304;11.896;2023-02-19T08:21:47;96742.44;;;7.01;100.00
45345;BME280;31078;48.304;11.896;2023-02-19T08:24:14;96751.00;;;7.09;100.00
45345;BME280;31078;48.304;11.896;2023-02-19T08:26:41;96760.75;;;7.10;100.00
45345;BME280;31078;48.304;11.896;2023-02-19T08:29:07;96746.34;;;7.14;100.00
45345;BME280;31078;48.304;11.896;2023-02-19T08:31:35;96753.16;;;7.12;100.00
45345;BME280;31078;48.304;11.896;2023-02-19T08:34:03;96755.34;;;7.10;100.00
45345;BME280;31078;48.304;11.896;2023-02-19T08:36:30;96755.34;;;7.10;100.00
45345;BME280;31078;48.304;11.896;2023-02-19T08:38:56;96753.41;;;7.15;100.00
45345;BME280;31078;48.304;11.896;2023-02-19T08:41:23;96776.44;;;7.13;100.00
45345;BME280;31078;48.304;11.896;2023-02-19T08:43:49;96777.69;;;6.96;100.00
45345;BME280;31078;48.304;11.896;2023-02-19T08:46:16;96763.16;;;6.82;100.00
45345;BME280;31078;48.304;11.896;2023-02-19T08:48:42;96751.09;;;6.69;100.00
45345;BME280;31078;48.304;11.896;2023-02-19T08:51:10;96766.84;;;6.62;100.00
45345;BME280;31078;48.304;11.896;2023-02-19T08:53:38;96757.97;;;6.57;100.00
45345;BME280;31078;48.304;11.896;2023-02-19T08:56:05;96736.38;;;6.46;100.00
45345;BME280;31078;48.304;11.896;2023-02-19T08:58:32;96752.69;;;6.36;100.00
45345;BME280;31078;48.304;11.896;2023-02-19T09:01:00;96774.09;;;6.33;100.00
45345;BME280;31078;48.304;11.896;2023-02-19T09:03:27;96776.00;;;6.32;100.00
45345;BME280;31078;48.304;11.896;2023-02-19T09:05:53;96778.69;;;6.37;99.61
45345;BME280;31078;48.304;11.896;2023-02-19T09:08:21;96771.22;;;6.58;96.64
45345;BME280;31078;48.304;11.896;2023-02-19T09:10:56;96775.72;;;6.68;95.32
45345;BME280;31078;48.304;11.896;2023-02-19T09:13:22;96770.22;;;6.78;95.22
45345;BME280;31078;48.304;11.896;2023-02-19T09:15:49;96770.78;;;6.80;94.92
45345;BME280;31078;48.304;11.896;2023-02-19T09:18:15;96771.66;;;6.99;93.33
45345;BME280;31078;48.304;11.896;2023-02-19T09:20:42;96762.41;;;7.35;92.20
45345;BME280;31078;48.304;11.896;2023-02-19T09:23:08;96770.88;;;7.28;91.42
45345;BME280;31078;48.304;11.896;2023-02-19T09:25:36;96770.88;;;7.28;93.81
45345;BME280;31078;48.304;11.896;2023-02-19T09:28:03;96771.38;;;7.30;93.34
45345;BME280;31078;48.304;11.896;2023-02-19T09:30:30;96762.41;;;7.35;92.97
45345;BME280;31078;48.304;11.896;2023-02-19T09:32:56;96750.09;;;7.47;92.18
45345;BME280;31078;48.304;11.896;2023-02-19T09:35:23;96761.69;;;7.53;90.80
45345;BME280;31078;48.304;11.896;2023-02-19T09:37:49;96760.88;;;7.52;92.95
45345;BME280;31078;48.304;11.896;2023-02-19T09:40:16;96761.25;;;7.65;93.31
45345;BME280;31078;48.304;11.896;2023-02-19T09:42:48;96760.41;;;7.88;94.00
45345;BME280;31078;48.304;11.896;2023-02-19T09:45:20;96762.66;;;8.24;91.67
45345;BME280;31078;48.304;11.896;2023-02-19T09:47:48;96773.88;;;8.41;90.91
45345;BME280;31078;48.304;11.896;2023-02-19T09:50:20;96783.09;;;8.40;89.11
45345;BME280;31078;48.304;11.896;2023-02-19T09:52:50;96765.66;;;8.46;88.15
45345;BME280;31078;48.304;11.896;2023-02-19T09:55:24;96761.19;;;8.88;86.62
45345;BME280;31078;48.304;11.896;2023-02-19T09:57:56;96782.84;;;8.93;83.63
45345;BME280;31078;48.304;11.896;2023-02-19T10:00:25;96777.31;;;8.98;83.14
45345;BME280;31078;48.304;11.896;2023-02-19T10:02:54;96785.03;;;9.24;82.83
45345;BME280;31078;48.304;11.896;2023-02-19T10:05:25;96783.06;;;9.43;79.87
45345;BME280;31078;48.304;11.896;2023-02-19T10:07:52;96778.69;;;9.28;77.76
45345;BME280;31078;48.304;11.896;2023-02-19T10:10:30;96781.63;;;9.32;79.72
45345;BME280;31078;48.304;11.896;2023-02-19T10:13:10;96793.97;;;9.10;77.93
45345;BME280;31078;48.304;11.896;2023-02-19T10:15:44;96801.78;;;8.98;76.28
45345;BME280;31078;48.304;11.896;2023-02-19T10:18:15;96803.31;;;9.04;76.54
45345;BME280;31078;48.304;11.896;2023-02-19T10:20:42;96792.59;;;8.94;77.94
45345;BME280;31078;48.304;11.896;2023-02-19T10:23:11;96792.34;;;9.09;78.52
45345;BME280;31078;48.304;11.896;2023-02-19T10:25:44;96797.41;;;8.97;77.00
45345;BME280;31078;48.304;11.896;2023-02-19T10:28:14;96806.97;;;9.13;76.28
45345;BME280;31078;48.304;11.896;2023-02-19T10:30:42;96805.94;;;9.09;74.51
45345;BME280;31078;48.304;11.896;2023-02-19T10:33:10;96799.47;;;9.05;72.59
45345;BME280;31078;48.304;11.896;2023-02-19T10:35:51;96819.03;;;9.21;70.40
45345;BME280;31078;48.304;11.896;2023-02-19T10:38:20;96811.53;;;9.32;71.25
45345;BME280;31078;48.304;11.896;2023-02-19T10:40:49;96823.91;;;9.38;72.50
45345;BME280;31078;48.304;11.896;2023-02-19T10:43:22;96824.00;;;9.93;72.67
45345;BME280;31078;48.304;11.896;2023-02-19T10:45:56;96825.47;;;9.58;67.22
45345;BME280;31078;48.304;11.896;2023-02-19T10:48:27;96820.75;;;9.63;69.10
45345;BME280;31078;48.304;11.896;2023-02-19T10:50:57;96815.09;;;9.46;71.01
45345;BME280;31078;48.304;11.896;2023-02-19T10:53:41;96820.09;;;9.39;73.13
45345;BME280;31078;48.304;11.896;2023-02-19T10:56:09;96827.06;;;9.45;70.59
45345;BME280;31078;48.304;11.896;2023-02-19T10:58:38;96827.06;;;9.45;73.12
45345;BME280;31078;48.304;11.896;2023-02-19T11:01:15;96835.13;;;9.50;73.46
45345;BME280;31078;48.304;11.896;2023-02-19T11:03:44;96847.88;;;9.36;67.40
45345;BME280;31078;48.304;11.896;2023-02-19T11:06:12;96830.16;;;9.38;69.15
45345;BME280;31078;48.304;11.896;2023-02-19T11:08:51;96836.47;;;9.34;67.25
45345;BME280;31078;48.304;11.896;2023-02-19T11:11:30;96824.72;;;9.38;67.45
45345;BME280;31078;48.304;11.896;2023-02-19T11:14:01;96825.44;;;9.44;69.00
45345;BME280;31078;48.304;11.896;2023-02-19T11:16:43;96801.00;;;9.85;68.05
45345;BME280;31078;48.304;11.896;2023-02-19T11:19:23;96820.97;;;9.94;67.66
45345;BME280;31078;48.304;11.896;2023-02-19T11:21:50;96827.84;;;9.92;66.01
45345;BME280;31078;48.304;11.896;2023-02-19T11:24:26;96845.94;;;9.83;65.10
45345;BME280;31078;48.304;11.896;2023-02-19T11:26:54;96837.47;;;9.71;65.33
45345;BME280;31078;48.304;11.896;2023-02-19T11:29:23;96822.25;;;9.56;64.46
45345;BME280;31078;48.304;11.896;2023-02-19T11:31:53;96814.28;;;9.59;64.51
45345;BME280;31078;48.304;11.896;2023-02-19T11:34:25;96805.63;;;9.57;64.92
45345;BME280;31078;48.304;11.896;2023-02-19T11:37:07;96814.72;;;9.66;64.18
45345;BME280;31078;48.304;11.896;2023-02-19T11:39:34;96822.97;;;9.75;62.62
45345;BME280;31078;48.304;11.896;2023-02-19T11:42:22;96828.31;;;9.66;63.50
45345;BME280;31078;48.304;11.896;2023-02-19T11:45:05;96837.16;;;9.58;63.21
45345;BME280;31078;48.304;11.896;2023-02-19T11:47:56;96824.16;;;9.55;65.09
45345;BME280;31078;48.304;11.896;2023-02-19T11:50:35;96832.59;;;9.40;66.18
45345;BME280;31078;48.304;11.896;2023-02-19T11:53:15;96837.59;;;9.33;67.58
45345;BME280;31078;48.304;11.896;2023-02-19T11:55:52;96842.69;;;9.21;68.46
45345;BME280;31078;48.304;11.896;2023-02-19T11:58:47;96841.34;;;9.04;69.37
45345;BME280;31078;48.304;11.896;2023-02-19T12:01:22;96835.25;;;8.94;71.77
45345;BME280;31078;48.304;11.896;2023-02-19T12:04:22;96833.09;;;9.09;72.13
45345;BME280;31078;48.304;11.896;2023-02-19T12:07:02;96806.50;;;9.06;70.91
45345;BME280;31078;48.304;11.896;2023-02-19T12:09:48;96820.47;;;9.32;69.94
45345;BME280;31078;48.304;11.896;2023-02-19T12:12:36;96831.41;;;9.46;68.60
45345;BME280;31078;48.304;11.896;2023-02-19T12:15:30;96834.78;;;9.38;68.56
45345;BME280;31078;48.304;11.896;2023-02-19T12:18:18;96826.31;;;9.26;70.19
45345;BME280;31078;48.304;11.896;2023-02-19T12:20:58;96842.63;;;9.39;70.38
45345;BME280;31078;48.304;11.896;2023-02-19T12:23:49;96838.97;;;9.63;69.08
45345;BME280;31078;48.304;11.896;2023-02-19T12:26:26;96838.94;;;9.49;67.88
45345;BME280;31078;48.304;11.896;2023-02-19T12:29:16;96831.97;;;9.43;69.40
45345;BME280;31078;48.304;11.896;2023-02-19T12:32:09;96819.63;;;9.51;68.55
45345;BME280;31078;48.304;11.896;2023-02-19T12:35:03;96843.75;;;9.99;66.16
45345;BME280;31078;48.304;11.896;2023-02-19T12:37:40;96845.53;;;9.89;67.41
45345;BME280;31078;48.304;11.896;2023-02-19T12:40:25;96847.44;;;9.61;66.97
45345;BME280;31078;48.304;11.896;2023-02-19T12:43:05;96847.88;;;9.36;67.89
45345;BME280;31078;48.304;11.896;2023-02-19T12:45:36;96844.22;;;9.27;67.30
45345;BME280;31078;48.304;11.896;2023-02-19T12:48:07;96845.16;;;9.36;66.39
45345;BME280;31078;48.304;11.896;2023-02-19T12:50:39;96833.94;;;9.24;67.85
45345;BME280;31078;48.304;11.896;2023-02-19T12:53:22;96847.03;;;9.22;67.05
45345;BME280;31078;48.304;11.896;2023-02-19T12:55:49;96853.34;;;9.17;69.11
45345;BME280;31078;48.304;11.896;2023-02-19T12:58:25;96853.94;;;9.47;69.19
45345;BME280;31078;48.304;11.896;2023-02-19T13:00:55;96863.03;;;9.56;69.08
45345;BME280;31078;48.304;11.896;2023-02-19T13:03:28;96863.41;;;9.49;68.49
45345;BME280;31078;48.304;11.896;2023-02-19T13:06:03;96853.31;;;9.50;69.08
45345;BME280;31078;48.304;11.896;2023-02-19T13:08:37;96856.75;;;9.41;69.74
45345;BME280;31078;48.304;11.896;2023-02-19T13:11:10;96840.22;;;9.38;69.63
45345;BME280;31078;48.304;11.896;2023-02-19T13:13:43;96843.28;;;9.50;68.97
45345;BME280;31078;48.304;11.896;2023-02-19T13:16:14;96835.84;;;9.56;70.00
45345;BME280;31078;48.304;11.896;2023-02-19T13:18:45;96836.84;;;9.46;69.37
45345;BME280;31078;48.304;11.896;2023-02-19T13:21:15;96837.94;;;9.45;68.88